Time;durP1;ratioP1;P1;durP2;ratioP2;P2;SDS_P1;SDS_P2;PMS_P1;PMS_P2;Temp;Humidity;BMP_temperature;BMP_pressure;BME280_temperature;BME280_humidity;BME280_pressure;Samples;Min_cycle;Max_cycle;Signal;HPM_P1;HPM_P2
2022/04/20 00:01:46;;;;;;;;;;;6.10;72.30;;;;;;5062085;28;19909;-73
2022/04/20 00:04:12;;;;;;;;;;;6.10;72.50;;;;;;5060819;28;19920;-73
2022/04/20 00:06:38;;;;;;;;;;;6.10;73.00;;;;;;5044392;28;19959;-72
2022/04/20 00:09:04;;;;;;;;;;;6.00;73.30;;;;;;5061073;28;19916;-73
2022/04/20 00:11:29;;;;;;;;;;;6.00;73.70;;;;;;5062835;28;19916;-72
2022/04/20 00:13:55;;;;;;;;;;;6.00;73.80;;;;;;5064937;28;19931;-72
2022/04/20 00:16:21;;;;;;;;;;;6.00;73.70;;;;;;5065712;28;19908;-73
2022/04/20 00:18:46;;;;;;;;;;;5.80;74.30;;;;;;5065952;28;19928;-72
2022/04/20 00:21:12;;;;;;;;;;;5.70;74.70;;;;;;5056716;28;19955;-71
2022/04/20 00:23:38;;;;;;;;;;;5.70;75.10;;;;;;5085885;28;19925;-71
2022/04/20 00:26:03;;;;;;;;;;;5.70;75.60;;;;;;5085732;28;20002;-71
2022/04/20 00:28:29;;;;;;;;;;;5.60;75.90;;;;;;5085665;28;20111;-71
2022/04/20 00:30:55;;;;;;;;;;;5.60;76.20;;;;;;5067604;28;19974;-71
2022/04/20 00:33:20;;;;;;;;;;;5.50;76.60;;;;;;5085572;28;19954;-71
2022/04/20 00:35:46;;;;;;;;;;;5.50;77.00;;;;;;5085470;28;19908;-71
2022/04/20 00:38:12;;;;;;;;;;;5.50;77.00;;;;;;5067570;28;19930;-72
2022/04/20 00:40:37;;;;;;;;;;;5.40;77.10;;;;;;5067515;28;19916;-72
2022/04/20 00:43:03;;;;;;;;;;;5.30;77.60;;;;;;5085431;28;19916;-71
2022/04/20 00:45:29;;;;;;;;;;;5.30;77.90;;;;;;5067563;28;19912;-71
2022/04/20 00:47:55;;;;;;;;;;;5.30;78.20;;;;;;5063402;28;19908;-71
2022/04/20 00:50:20;;;;;;;;;;;5.20;78.30;;;;;;5049551;28;19908;-71
2022/04/20 00:52:46;;;;;;;;;;;5.20;78.90;;;;;;5050409;28;19931;-71
2022/04/20 00:55:12;;;;;;;;;;;5.20;79.00;;;;;;5085115;28;19908;-72
2022/04/20 00:57:37;;;;;;;;;;;5.10;79.10;;;;;;5085246;28;19920;-71
2022/04/20 01:00:04;;;;;;;;;;;5.10;79.30;;;;;;5085108;28;20115;-71
2022/04/20 01:02:30;;;;;;;;;;;5.00;79.80;;;;;;5066982;28;19912;-71
2022/04/20 01:04:56;;;;;;;;;;;5.00;80.00;;;;;;5066946;28;19913;-71
2022/04/20 01:07:22;;;;;;;;;;;5.00;80.00;;;;;;5084752;28;19909;-71
2022/04/20 01:09:47;;;;;;;;;;;4.90;80.30;;;;;;5084973;28;19916;-71
2022/04/20 01:12:16;;;;;;;;;;;4.90;80.30;;;;;;5084666;28;19987;-71
2022/04/20 01:14:42;;;;;;;;;;;4.90;80.50;;;;;;5051164;28;19915;-71
2022/04/20 01:17:08;;;;;;;;;;;4.90;80.70;;;;;;5067024;28;19983;-71
2022/04/20 01:19:40;;;;;;;;;;;4.80;81.00;;;;;;5076965;28;19916;-71
2022/04/20 01:22:07;;;;;;;;;;;4.80;81.20;;;;;;5063407;28;19943;-71
2022/04/20 01:24:33;;;;;;;;;;;4.70;81.20;;;;;;5066331;28;19939;-72
2022/04/20 01:26:59;;;;;;;;;;;4.60;81.50;;;;;;5067019;28;19908;-72
2022/04/20 01:29:28;;;;;;;;;;;4.50;81.90;;;;;;5049998;28;19908;-71
2022/04/20 01:31:54;;;;;;;;;;;4.60;82.80;;;;;;5066692;28;19943;-71
2022/04/20 01:34:19;;;;;;;;;;;4.60;81.90;;;;;;5066623;28;20095;-72
2022/04/20 01:36:45;;;;;;;;;;;4.60;81.90;;;;;;5108266;22;19912;-68
2022/04/20 01:39:11;;;;;;;;;;;4.50;82.10;;;;;;5130673;27;19961;-67
2022/04/20 01:41:37;;;;;;;;;;;4.40;82.70;;;;;;5144029;27;19916;-66
2022/04/20 01:44:03;;;;;;;;;;;4.30;83.30;;;;;;5126076;27;19998;-66
2022/04/20 01:46:28;;;;;;;;;;;4.40;83.40;;;;;;5123645;28;20126;-67
2022/04/20 01:48:54;;;;;;;;;;;4.30;83.20;;;;;;5123788;28;19939;-67
2022/04/20 01:54:04;;;;;;;;;;;4.50;83.10;;;;;;5144030;27;20032;-67
2022/04/20 01:56:30;;;;;;;;;;;4.40;83.30;;;;;;5128136;27;20003;-66
2022/04/20 01:58:56;;;;;;;;;;;4.40;83.30;;;;;;5123367;28;19907;-66
2022/04/20 02:04:06;;;;;;;;;;;4.30;83.70;;;;;;5123276;28;20063;-66
2022/04/20 02:06:32;;;;;;;;;;;4.30;83.90;;;;;;5123426;28;19916;-67
2022/04/20 02:08:58;;;;;;;;;;;4.20;84.30;;;;;;5123152;28;19908;-66
2022/04/20 02:11:23;;;;;;;;;;;4.20;84.60;;;;;;5122978;28;20137;-66
2022/04/20 02:13:49;;;;;;;;;;;4.20;84.60;;;;;;5122836;28;19946;-67
2022/04/20 02:16:15;;;;;;;;;;;4.10;84.80;;;;;;5122696;28;19912;-66
2022/04/20 02:18:40;;;;;;;;;;;4.10;85.80;;;;;;5122964;28;20107;-66
2022/04/20 02:21:06;;;;;;;;;;;4.00;85.40;;;;;;5122612;28;19908;-66
2022/04/20 02:23:32;;;;;;;;;;;4.00;85.30;;;;;;5122771;28;19920;-66
2022/04/20 02:25:57;;;;;;;;;;;4.00;85.40;;;;;;5122439;28;20199;-67
2022/04/20 02:28:23;;;;;;;;;;;4.00;85.60;;;;;;5122772;28;19915;-66
2022/04/20 02:30:49;;;;;;;;;;;4.00;85.30;;;;;;5122604;28;19962;-67
2022/04/20 02:33:14;;;;;;;;;;;4.00;85.30;;;;;;5122783;28;19935;-66
2022/04/20 02:35:40;;;;;;;;;;;4.00;86.00;;;;;;5121526;28;19919;-66
2022/04/20 02:38:10;;;;;;;;;;;3.90;86.50;;;;;;5122225;28;19911;-67
2022/04/20 02:40:39;;;;;;;;;;;3.90;86.50;;;;;;5122789;28;19908;-67
2022/04/20 02:43:05;;;;;;;;;;;3.80;86.80;;;;;;5121535;28;19952;-66
2022/04/20 02:45:30;;;;;;;;;;;3.80;87.50;;;;;;5104400;28;19967;-68
2022/04/20 02:47:56;;;;;;;;;;;3.70;87.80;;;;;;5122548;28;19907;-67
2022/04/20 02:50:22;;;;;;;;;;;3.70;88.20;;;;;;5122772;28;19974;-67
2022/04/20 02:52:47;;;;;;;;;;;3.70;88.60;;;;;;5121907;28;19907;-67
2022/04/20 02:55:13;;;;;;;;;;;3.70;88.50;;;;;;5122449;28;19915;-67
2022/04/20 02:57:39;;;;;;;;;;;3.70;89.70;;;;;;5122562;28;19969;-67
2022/04/20 03:00:06;;;;;;;;;;;3.60;90.00;;;;;;5122641;28;19976;-67
2022/04/20 03:02:31;;;;;;;;;;;3.50;90.30;;;;;;5122143;28;19908;-67
2022/04/20 03:04:57;;;;;;;;;;;3.60;90.20;;;;;;5122426;28;19922;-67
2022/04/20 03:07:23;;;;;;;;;;;3.60;90.20;;;;;;5121981;28;20183;-66
2022/04/20 03:09:49;;;;;;;;;;;3.70;90.10;;;;;;5122340;28;19974;-67
2022/04/20 03:12:14;;;;;;;;;;;3.70;90.00;;;;;;5122076;28;19908;-67
2022/04/20 03:14:40;;;;;;;;;;;3.70;90.10;;;;;;5118543;28;19951;-67
2022/04/20 03:17:06;;;;;;;;;;;3.60;90.20;;;;;;5121976;28;19929;-67
2022/04/20 03:19:32;;;;;;;;;;;3.60;90.10;;;;;;5122184;28;20145;-67
2022/04/20 03:21:57;;;;;;;;;;;3.50;90.20;;;;;;5121818;28;20003;-67
2022/04/20 03:24:23;;;;;;;;;;;3.50;90.10;;;;;;5121236;28;19908;-67
2022/04/20 03:26:49;;;;;;;;;;;3.60;90.20;;;;;;5121965;28;19908;-67
2022/04/20 03:29:14;;;;;;;;;;;3.60;90.50;;;;;;5122045;28;19907;-67
2022/04/20 03:31:40;;;;;;;;;;;3.60;90.20;;;;;;5121749;28;19974;-67
2022/04/20 03:34:06;;;;;;;;;;;3.50;90.50;;;;;;5121685;28;19908;-67
2022/04/20 03:36:31;;;;;;;;;;;3.50;90.60;;;;;;5121623;28;20199;-67
2022/04/20 03:38:57;;;;;;;;;;;3.50;90.60;;;;;;5121366;28;19990;-67
2022/04/20 03:41:23;;;;;;;;;;;3.40;90.80;;;;;;5103416;28;19911;-67
2022/04/20 03:43:49;;;;;;;;;;;3.40;90.80;;;;;;5121817;28;19999;-67
2022/04/20 03:46:15;;;;;;;;;;;3.40;90.70;;;;;;5122523;28;19908;-67
2022/04/20 03:48:41;;;;;;;;;;;3.20;91.10;;;;;;5126149;28;20195;-67
2022/04/20 03:51:07;;;;;;;;;;;3.20;91.20;;;;;;5125862;28;20419;-67
2022/04/20 03:53:32;;;;;;;;;;;3.20;91.20;;;;;;5125878;28;19919;-66
2022/04/20 03:55:58;;;;;;;;;;;3.30;91.20;;;;;;5126215;28;20242;-67
2022/04/20 03:58:24;;;;;;;;;;;3.30;91.10;;;;;;5125927;28;19908;-67
2022/04/20 04:00:51;;;;;;;;;;;3.20;91.20;;;;;;5125708;28;19907;-67
2022/04/20 04:03:18;;;;;;;;;;;3.20;91.30;;;;;;5125989;28;19940;-66
2022/04/20 04:05:43;;;;;;;;;;;3.20;91.20;;;;;;5107593;28;19944;-67
2022/04/20 04:08:09;;;;;;;;;;;3.10;91.30;;;;;;5125427;28;19908;-66
2022/04/20 04:10:35;;;;;;;;;;;3.10;91.30;;;;;;5125631;28;20041;-67
2022/04/20 04:13:01;;;;;;;;;;;3.00;91.50;;;;;;5125667;28;19976;-67
2022/04/20 04:15:28;;;;;;;;;;;3.00;91.60;;;;;;5125763;28;19924;-67
2022/04/20 04:17:59;;;;;;;;;;;2.90;91.80;;;;;;5125464;28;19915;-67
2022/04/20 04:20:26;;;;;;;;;;;2.90;91.90;;;;;;5125572;28;19931;-67
2022/04/20 04:22:52;;;;;;;;;;;2.90;91.80;;;;;;5105940;28;19907;-67
2022/04/20 04:25:18;;;;;;;;;;;2.90;91.80;;;;;;5125736;28;19930;-67
2022/04/20 04:27:43;;;;;;;;;;;2.80;91.90;;;;;;5121279;28;19912;-67
2022/04/20 04:30:10;;;;;;;;;;;2.90;91.80;;;;;;5125086;28;19936;-67
2022/04/20 04:32:35;;;;;;;;;;;2.90;91.80;;;;;;5120862;28;19943;-67
2022/04/20 04:35:01;;;;;;;;;;;2.80;92.00;;;;;;5123118;28;19923;-68
2022/04/20 04:37:27;;;;;;;;;;;2.80;92.00;;;;;;5119896;28;19950;-67
2022/04/20 04:39:53;;;;;;;;;;;2.80;92.10;;;;;;5122791;28;20114;-68
2022/04/20 04:42:19;;;;;;;;;;;2.90;92.00;;;;;;5124691;28;19927;-68
2022/04/20 04:44:44;;;;;;;;;;;3.00;91.90;;;;;;5125217;28;19908;-69
2022/04/20 04:49:54;;;;;;;;;;;3.20;91.60;;;;;;5125099;28;19922;-68
2022/04/20 04:52:20;;;;;;;;;;;3.30;91.50;;;;;;5120738;28;19912;-69
2022/04/20 04:54:46;;;;;;;;;;;3.30;91.40;;;;;;5124578;28;19915;-68
2022/04/20 04:57:12;;;;;;;;;;;3.40;91.50;;;;;;5124666;28;19916;-68
2022/04/20 04:59:41;;;;;;;;;;;3.40;91.40;;;;;;5105278;28;19915;-68
2022/04/20 05:02:07;;;;;;;;;;;3.50;91.10;;;;;;5124566;28;19953;-67
2022/04/20 05:04:36;;;;;;;;;;;3.40;90.80;;;;;;5138610;27;19945;-69
2022/04/20 05:07:03;;;;;;;;;;;3.40;91.00;;;;;;5145234;27;19915;-68
2022/04/20 05:09:29;;;;;;;;;;;3.50;90.70;;;;;;5144863;27;19915;-68
2022/04/20 05:11:54;;;;;;;;;;;3.40;90.70;;;;;;5144683;27;20185;-68
2022/04/20 05:14:20;;;;;;;;;;;3.40;90.80;;;;;;5145051;27;19922;-68
2022/04/20 05:16:46;;;;;;;;;;;3.50;90.90;;;;;;5144957;27;19907;-68
2022/04/20 05:19:12;;;;;;;;;;;3.60;90.90;;;;;;5144930;27;20215;-68
2022/04/20 05:21:37;;;;;;;;;;;3.60;90.70;;;;;;5144581;27;19935;-67
2022/04/20 05:24:04;;;;;;;;;;;3.60;90.90;;;;;;5123581;28;19912;-68
2022/04/20 05:26:29;;;;;;;;;;;3.70;90.80;;;;;;5124158;28;19908;-67
2022/04/20 05:28:55;;;;;;;;;;;3.70;90.90;;;;;;5124052;28;19915;-68
2022/04/20 05:31:21;;;;;;;;;;;3.70;91.00;;;;;;5123805;28;19908;-68
2022/04/20 05:33:46;;;;;;;;;;;3.70;90.80;;;;;;5123983;28;19919;-67
2022/04/20 05:36:12;;;;;;;;;;;3.90;90.60;;;;;;5123796;28;19927;-68
2022/04/20 05:41:41;;;;;;;;;;;4.10;88.30;;;;;;5123754;28;19968;-68
2022/04/20 05:44:11;;;;;;;;;;;4.30;88.20;;;;;;5121679;28;19919;-68
2022/04/20 05:46:38;;;;;;;;;;;4.30;88.00;;;;;;5111397;28;19915;-68
2022/04/20 05:49:03;;;;;;;;;;;4.30;88.40;;;;;;5123882;28;20258;-68
2022/04/20 05:51:29;;;;;;;;;;;4.40;88.40;;;;;;5123304;28;19908;-68
2022/04/20 05:53:55;;;;;;;;;;;4.50;88.20;;;;;;5123596;28;19929;-67
2022/04/20 05:56:20;;;;;;;;;;;4.60;88.10;;;;;;5123556;28;19911;-68
2022/04/20 05:58:50;;;;;;;;;;;4.60;87.20;;;;;;5123576;28;19911;-68
2022/04/20 06:01:16;;;;;;;;;;;4.70;86.50;;;;;;5123343;28;19938;-68
2022/04/20 06:03:42;;;;;;;;;;;4.70;86.80;;;;;;5105283;28;20225;-68
2022/04/20 06:06:08;;;;;;;;;;;4.80;86.80;;;;;;5123441;28;19919;-68
2022/04/20 06:08:34;;;;;;;;;;;4.80;86.40;;;;;;5122936;28;19970;-67
2022/04/20 06:11:00;;;;;;;;;;;4.90;85.80;;;;;;5118542;28;19956;-67
2022/04/20 06:13:27;;;;;;;;;;;4.90;86.00;;;;;;5122209;28;19907;-68
2022/04/20 06:15:54;;;;;;;;;;;5.00;85.60;;;;;;5114114;28;19923;-68
2022/04/20 06:18:20;;;;;;;;;;;5.10;85.30;;;;;;5123045;28;19953;-68
2022/04/20 06:20:45;;;;;;;;;;;5.30;84.80;;;;;;5116671;28;19951;-68
2022/04/20 06:23:11;;;;;;;;;;;5.40;84.40;;;;;;5122669;28;19929;-68
2022/04/20 06:25:37;;;;;;;;;;;5.40;84.60;;;;;;5116610;28;19988;-67
2022/04/20 06:28:03;;;;;;;;;;;5.50;84.30;;;;;;5122723;28;19915;-67
2022/04/20 06:30:29;;;;;;;;;;;5.70;82.40;;;;;;5122650;28;19983;-67
2022/04/20 06:32:54;;;;;;;;;;;5.80;81.50;;;;;;5122630;28;19907;-67
2022/04/20 06:35:20;;;;;;;;;;;5.90;82.10;;;;;;5122381;28;20095;-67
2022/04/20 06:37:46;;;;;;;;;;;5.90;82.70;;;;;;5122329;28;19975;-67
2022/04/20 06:40:11;;;;;;;;;;;5.90;83.20;;;;;;5122711;28;20231;-68
2022/04/20 06:42:37;;;;;;;;;;;6.00;83.20;;;;;;5122028;28;19916;-68
2022/04/20 06:45:03;;;;;;;;;;;6.00;83.40;;;;;;5119971;28;19915;-67
2022/04/20 06:47:29;;;;;;;;;;;6.10;82.70;;;;;;5104435;28;19908;-67
2022/04/20 06:49:55;;;;;;;;;;;6.20;82.60;;;;;;5104316;28;19912;-67
2022/04/20 07:00:33;;;;;;;;;;;6.60;81.10;;;;;;5122208;28;19927;-67
2022/04/20 07:03:00;;;;;;;;;;;6.60;80.90;;;;;;5122063;28;19907;-66
2022/04/20 07:05:26;;;;;;;;;;;6.80;80.00;;;;;;5122284;28;20163;-66
2022/04/20 07:07:52;;;;;;;;;;;6.90;80.10;;;;;;5122063;28;19978;-66
2022/04/20 07:10:17;;;;;;;;;;;6.90;80.40;;;;;;5122152;28;20139;-67
2022/04/20 07:12:43;;;;;;;;;;;6.90;80.00;;;;;;5121602;28;19908;-67
2022/04/20 07:15:09;;;;;;;;;;;6.90;78.70;;;;;;5121874;28;19927;-67
2022/04/20 07:17:34;;;;;;;;;;;7.00;78.20;;;;;;5122145;28;19914;-67
2022/04/20 07:20:01;;;;;;;;;;;7.10;78.80;;;;;;5122065;28;20194;-66
2022/04/20 07:22:27;;;;;;;;;;;7.30;76.60;;;;;;5120907;28;19915;-67
2022/04/20 07:24:53;;;;;;;;;;;7.50;74.50;;;;;;5121912;28;19922;-67
2022/04/20 07:27:19;;;;;;;;;;;7.80;73.70;;;;;;5122034;28;19938;-66
2022/04/20 07:29:44;;;;;;;;;;;7.90;73.50;;;;;;5122312;28;19974;-67
2022/04/20 07:32:10;;;;;;;;;;;7.90;73.90;;;;;;5121803;28;20222;-67
2022/04/20 07:34:36;;;;;;;;;;;7.90;73.20;;;;;;5121907;28;19912;-67
2022/04/20 07:37:03;;;;;;;;;;;7.90;73.80;;;;;;5121977;28;19919;-66
2022/04/20 07:39:29;;;;;;;;;;;7.90;73.30;;;;;;5120069;28;19933;-67
2022/04/20 07:41:54;;;;;;;;;;;8.20;71.60;;;;;;5116405;28;19916;-66
2022/04/20 07:44:20;;;;;;;;;;;8.30;71.70;;;;;;5121770;28;20159;-67
2022/04/20 07:46:46;;;;;;;;;;;8.30;72.80;;;;;;5122049;28;19915;-67
2022/04/20 07:51:56;;;;;;;;;;;8.40;72.60;;;;;;5121524;28;19976;-67
2022/04/20 07:54:21;;;;;;;;;;;8.50;71.20;;;;;;5121389;28;19943;-67
2022/04/20 07:56:47;;;;;;;;;;;8.60;71.10;;;;;;5121793;28;19964;-67
2022/04/20 07:59:19;;;;;;;;;;;8.60;71.80;;;;;;5103610;28;19908;-67
2022/04/20 08:01:45;;;;;;;;;;;8.60;73.00;;;;;;5121522;28;19912;-66
2022/04/20 08:04:11;;;;;;;;;;;8.60;72.30;;;;;;5121501;28;19953;-67
2022/04/20 08:06:37;;;;;;;;;;;8.80;70.20;;;;;;5111714;28;20268;-66
2022/04/20 08:09:03;;;;;;;;;;;8.90;70.20;;;;;;5116315;28;19908;-67
2022/04/20 08:11:28;;;;;;;;;;;9.00;67.80;;;;;;5112918;28;19919;-67
2022/04/20 08:14:09;;;;;;;;;;;9.30;63.70;;;;;;5113162;28;19919;-68
2022/04/20 08:16:35;;;;;;;;;;;9.50;59.80;;;;;;5117558;28;19915;-67
2022/04/20 08:19:01;;;;;;;;;;;9.70;56.20;;;;;;5119339;28;20261;-66
2022/04/20 08:21:27;;;;;;;;;;;9.80;54.40;;;;;;5111107;28;20161;-67
2022/04/20 08:23:53;;;;;;;;;;;9.90;54.40;;;;;;5120427;28;19970;-67
2022/04/20 08:26:19;;;;;;;;;;;9.90;55.80;;;;;;5117869;28;19916;-67
2022/04/20 08:28:44;;;;;;;;;;;9.90;57.50;;;;;;5121197;28;20141;-67
2022/04/20 08:31:10;;;;;;;;;;;9.90;57.60;;;;;;5118366;28;20195;-66
2022/04/20 08:33:35;;;;;;;;;;;9.90;53.80;;;;;;5122581;28;19908;-67
2022/04/20 08:36:01;;;;;;;;;;;10.10;53.50;;;;;;5125345;28;19919;-67
2022/04/20 08:38:27;;;;;;;;;;;10.10;54.00;;;;;;5124836;28;19920;-67
2022/04/20 08:40:53;;;;;;;;;;;10.20;50.70;;;;;;5124954;28;19915;-67
2022/04/20 08:43:19;;;;;;;;;;;10.30;50.00;;;;;;5125318;28;19907;-67
2022/04/20 08:45:47;;;;;;;;;;;10.30;50.50;;;;;;5134695;27;20195;-67
2022/04/20 08:48:12;;;;;;;;;;;10.40;49.30;;;;;;5127363;27;19968;-67
2022/04/20 08:50:38;;;;;;;;;;;10.50;50.20;;;;;;5145347;27;20188;-67
2022/04/20 08:53:04;;;;;;;;;;;10.70;46.40;;;;;;5121965;28;19945;-67
2022/04/20 08:55:30;;;;;;;;;;;10.70;46.20;;;;;;5106479;28;19920;-66
2022/04/20 08:57:56;;;;;;;;;;;10.70;46.20;;;;;;5124771;28;19912;-66
2022/04/20 09:00:25;;;;;;;;;;;10.60;46.70;;;;;;5124695;28;19943;-66
2022/04/20 09:02:55;;;;;;;;;;;10.70;45.10;;;;;;5124370;28;19908;-66
2022/04/20 09:05:21;;;;;;;;;;;10.80;45.70;;;;;;5124627;28;19975;-66
2022/04/20 09:07:47;;;;;;;;;;;10.80;44.00;;;;;;5124645;28;19949;-67
2022/04/20 09:10:12;;;;;;;;;;;10.80;46.70;;;;;;5124365;28;19990;-67
2022/04/20 09:12:42;;;;;;;;;;;10.80;45.70;;;;;;5106241;28;19915;-67
2022/04/20 09:15:09;;;;;;;;;;;10.90;44.70;;;;;;5124442;28;19912;-66
2022/04/20 09:17:40;;;;;;;;;;;11.00;44.90;;;;;;5139403;27;19908;-67
2022/04/20 09:20:07;;;;;;;;;;;11.20;45.10;;;;;;5144950;27;19971;-66
2022/04/20 09:22:33;;;;;;;;;;;11.10;43.60;;;;;;5125403;27;20004;-66
2022/04/20 09:24:59;;;;;;;;;;;11.20;46.50;;;;;;5123967;28;19979;-67
2022/04/20 09:27:30;;;;;;;;;;;11.20;45.40;;;;;;5124107;28;20029;-67
2022/04/20 09:29:56;;;;;;;;;;;11.30;44.10;;;;;;5106218;28;19908;-67
2022/04/20 09:32:35;;;;;;;;;;;11.30;43.40;;;;;;5123731;28;19983;-67
2022/04/20 09:35:03;;;;;;;;;;;11.30;43.60;;;;;;5124056;28;19915;-67
2022/04/20 09:37:29;;;;;;;;;;;11.30;45.10;;;;;;5123770;28;19949;-67
2022/04/20 09:39:55;;;;;;;;;;;11.30;46.10;;;;;;5123735;28;20325;-67
2022/04/20 09:42:21;;;;;;;;;;;11.50;45.70;;;;;;5105380;28;19953;-67
2022/04/20 09:45:00;;;;;;;;;;;11.60;44.30;;;;;;5123287;28;20310;-67
2022/04/20 09:50:13;;;;;;;;;;;11.70;46.50;;;;;;5128885;27;19959;-67
2022/04/20 09:52:44;;;;;;;;;;;11.90;44.80;;;;;;5143383;27;20199;-67
2022/04/20 09:55:12;;;;;;;;;;;12.10;46.60;;;;;;5123374;28;19912;-67
2022/04/20 09:57:37;;;;;;;;;;;12.10;45.80;;;;;;5105181;28;19916;-67
2022/04/20 10:00:11;;;;;;;;;;;12.10;45.40;;;;;;5123556;28;20017;-68
2022/04/20 10:02:38;;;;;;;;;;;12.00;44.10;;;;;;5123197;28;19991;-67
2022/04/20 10:05:04;;;;;;;;;;;12.20;45.90;;;;;;5123391;28;19970;-67
2022/04/20 10:07:29;;;;;;;;;;;12.40;43.40;;;;;;5123376;28;19907;-68
2022/04/20 10:09:56;;;;;;;;;;;12.50;43.40;;;;;;5104825;28;19953;-68
2022/04/20 10:12:21;;;;;;;;;;;12.60;42.10;;;;;;5123220;28;20159;-67
2022/04/20 10:17:43;;;;;;;;;;;12.50;42.40;;;;;;5123256;28;19979;-67
2022/04/20 10:20:10;;;;;;;;;;;12.50;45.10;;;;;;5122951;27;19942;-67
2022/04/20 10:22:37;;;;;;;;;;;12.60;45.10;;;;;;5117046;28;19947;-67
2022/04/20 10:25:02;;;;;;;;;;;12.70;44.20;;;;;;5109295;28;19920;-67
2022/04/20 10:27:34;;;;;;;;;;;12.80;44.70;;;;;;5098795;28;19948;-67
2022/04/20 10:30:02;;;;;;;;;;;12.90;45.10;;;;;;5117290;28;19934;-68
2022/04/20 10:32:32;;;;;;;;;;;13.20;46.10;;;;;;5107948;28;20225;-68
2022/04/20 10:34:59;;;;;;;;;;;13.40;43.40;;;;;;5121362;28;20070;-67
2022/04/20 10:37:25;;;;;;;;;;;13.50;42.20;;;;;;5122995;28;20143;-67
2022/04/20 10:39:53;;;;;;;;;;;13.50;41.70;;;;;;5122575;28;19915;-67
2022/04/20 10:42:20;;;;;;;;;;;13.50;40.60;;;;;;5122572;28;19908;-67
2022/04/20 10:45:07;;;;;;;;;;;13.60;43.60;;;;;;5122670;28;19908;-67
2022/04/20 10:47:33;;;;;;;;;;;13.70;43.60;;;;;;5117327;28;20042;-67
2022/04/20 10:50:14;;;;;;;;;;;13.90;41.20;;;;;;5110317;28;19908;-71
2022/04/20 10:52:41;;;;;;;;;;;14.00;41.00;;;;;;5122171;28;20095;-71
2022/04/20 10:55:09;;;;;;;;;;;14.10;42.80;;;;;;5122289;28;19920;-71
2022/04/20 10:57:36;;;;;;;;;;;14.20;43.40;;;;;;5121641;28;20137;-72
2022/04/20 11:00:20;;;;;;;;;;;14.30;40.70;;;;;;5122608;28;19922;-66
2022/04/20 11:02:53;;;;;;;;;;;14.50;40.70;;;;;;5122125;28;19966;-65
2022/04/20 11:05:20;;;;;;;;;;;14.60;41.50;;;;;;5122653;28;20095;-66
2022/04/20 11:08:14;;;;;;;;;;;14.90;42.30;;;;;;5122192;28;19915;-66
2022/04/20 11:10:41;;;;;;;;;;;15.10;40.50;;;;;;5118641;28;19924;-65
2022/04/20 11:19:11;;;;;;;;;;;15.40;38.80;;;;;;5121914;28;19914;-66
2022/04/20 11:21:37;;;;;;;;;;;15.50;39.70;;;;;;5113025;28;19952;-66
2022/04/20 11:24:07;;;;;;;;;;;15.80;39.60;;;;;;5121575;28;19949;-66
2022/04/20 11:26:39;;;;;;;;;;;15.90;39.30;;;;;;5121870;28;19966;-66
2022/04/20 11:29:08;;;;;;;;;;;16.10;37.40;;;;;;5121736;28;19979;-65
2022/04/20 11:31:42;;;;;;;;;;;16.30;38.30;;;;;;5121846;28;20263;-66
2022/04/20 11:34:08;;;;;;;;;;;16.30;37.80;;;;;;5121393;28;19916;-65
2022/04/20 11:36:37;;;;;;;;;;;16.40;36.60;;;;;;5121597;28;20206;-66
2022/04/20 11:39:03;;;;;;;;;;;16.50;37.90;;;;;;5120976;28;20068;-65
2022/04/20 11:41:29;;;;;;;;;;;16.80;38.60;;;;;;5121239;28;19908;-65
2022/04/20 11:43:54;;;;;;;;;;;17.10;36.00;;;;;;5115796;28;20182;-65
2022/04/20 11:46:20;;;;;;;;;;;17.20;36.40;;;;;;5110548;28;19912;-65
2022/04/20 11:48:56;;;;;;;;;;;17.40;35.90;;;;;;5119849;28;19930;-65
2022/04/20 11:51:23;;;;;;;;;;;17.60;34.60;;;;;;5120975;28;19943;-65
2022/04/20 11:53:49;;;;;;;;;;;17.80;35.00;;;;;;5121115;28;19914;-65
2022/04/20 11:56:15;;;;;;;;;;;17.90;35.20;;;;;;5120959;28;19951;-66
2022/04/20 11:58:47;;;;;;;;;;;18.40;34.70;;;;;;5102754;28;19916;-65
2022/04/20 12:01:13;;;;;;;;;;;18.80;33.30;;;;;;5121099;28;19930;-65
2022/04/20 12:03:43;;;;;;;;;;;19.40;33.00;;;;;;5121400;28;20143;-66
2022/04/20 12:06:10;;;;;;;;;;;19.50;31.10;;;;;;5121145;28;19961;-65
2022/04/20 12:08:38;;;;;;;;;;;19.70;31.90;;;;;;5123863;28;19915;-66
2022/04/20 12:11:05;;;;;;;;;;;20.10;33.00;;;;;;5125043;28;19915;-66
2022/04/20 12:13:31;;;;;;;;;;;20.70;30.20;;;;;;5125513;28;19908;-66
2022/04/20 12:16:03;;;;;;;;;;;21.30;31.60;;;;;;5125307;28;20226;-66
2022/04/20 12:18:30;;;;;;;;;;;22.00;29.20;;;;;;5121893;28;20110;-66
2022/04/20 12:20:57;;;;;;;;;;;23.40;29.50;;;;;;5106720;28;20006;-66
2022/04/20 12:23:22;;;;;;;;;;;25.20;28.80;;;;;;5124858;28;19943;-66
2022/04/20 12:25:54;;;;;;;;;;;26.80;27.00;;;;;;5125105;28;20048;-66
2022/04/20 12:29:06;;;;;;;;;;;27.60;25.90;;;;;;5106816;28;20312;-66
2022/04/20 12:31:15;;;;;;;;;;;29.20;25.10;;;;;;5116489;28;19908;-66
2022/04/20 12:33:41;;;;;;;;;;;30.00;24.60;;;;;;5107166;28;19974;-66
2022/04/20 12:36:11;;;;;;;;;;;30.60;24.30;;;;;;5124840;28;19912;-66
2022/04/20 12:38:47;;;;;;;;;;;31.20;23.00;;;;;;5106838;28;19912;-66
2022/04/20 12:41:37;;;;;;;;;;;31.00;22.30;;;;;;5124818;28;19958;-67
2022/04/20 12:44:35;;;;;;;;;;;31.60;22.00;;;;;;5124825;28;20110;-66
2022/04/20 12:47:19;;;;;;;;;;;31.80;21.90;;;;;;5115021;28;19923;-66
2022/04/20 12:50:03;;;;;;;;;;;31.70;23.10;;;;;;5124315;28;20249;-67
2022/04/20 12:52:29;;;;;;;;;;;32.60;22.30;;;;;;5123509;28;20222;-67
2022/04/20 12:55:00;;;;;;;;;;;32.90;22.80;;;;;;5124277;28;19956;-67
2022/04/20 13:03:07;;;;;;;;;;;34.20;21.10;;;;;;5108820;28;19958;-67
2022/04/20 13:05:35;;;;;;;;;;;34.80;21.10;;;;;;5124532;28;19923;-67
2022/04/20 13:08:01;;;;;;;;;;;35.90;20.80;;;;;;5124324;28;19908;-67
2022/04/20 13:10:29;;;;;;;;;;;35.30;20.70;;;;;;5124070;28;19939;-67
2022/04/20 13:12:55;;;;;;;;;;;35.40;20.70;;;;;;5124101;28;19916;-67
2022/04/20 13:15:21;;;;;;;;;;;35.40;21.30;;;;;;5124287;28;19920;-67
2022/04/20 13:17:47;;;;;;;;;;;36.40;20.40;;;;;;5124231;28;20011;-67
2022/04/20 13:20:13;;;;;;;;;;;36.10;25.50;;;;;;5123304;28;19945;-67
2022/04/20 13:22:39;;;;;;;;;;;36.40;20.90;;;;;;5123842;28;19908;-67
2022/04/20 13:27:55;;;;;;;;;;;36.80;20.50;;;;;;5124075;28;19930;-67
2022/04/20 13:30:38;;;;;;;;;;;37.80;19.70;;;;;;5124290;28;19965;-67
2022/04/20 13:33:05;;;;;;;;;;;36.70;20.00;;;;;;5124039;28;19983;-67
2022/04/20 13:35:31;;;;;;;;;;;36.80;19.30;;;;;;5123494;28;19971;-66
2022/04/20 13:37:56;;;;;;;;;;;36.70;20.90;;;;;;5123326;28;20187;-63
2022/04/20 13:40:22;;;;;;;;;;;37.20;20.90;;;;;;5123480;28;19916;-66
2022/04/20 13:42:49;;;;;;;;;;;37.60;19.80;;;;;;5123431;28;19907;-65
2022/04/20 13:45:15;;;;;;;;;;;;;;;;;;5123827;28;19958;-66
2022/04/20 13:47:41;;;;;;;;;;;39.00;18.80;;;;;;5123687;28;19907;-65
2022/04/20 13:50:07;;;;;;;;;;;38.00;18.80;;;;;;5104095;28;20221;-73
2022/04/20 13:52:36;;;;;;;;;;;37.10;19.80;;;;;;5108422;28;19924;-68
2022/04/20 13:55:03;;;;;;;;;;;37.00;19.70;;;;;;5102478;28;20145;-69
2022/04/20 13:57:29;;;;;;;;;;;36.90;19.60;;;;;;5102939;28;19908;-72
2022/04/20 13:59:55;;;;;;;;;;;37.30;18.90;;;;;;5103062;28;19915;-68
2022/04/20 14:02:22;;;;;;;;;;;;;;;;;;5084473;28;19908;-68
2022/04/20 14:04:49;;;;;;;;;;;37.30;38.80;;;;;;5102646;28;19952;-68
2022/04/20 14:07:14;;;;;;;;;;;36.80;37.70;;;;;;5102990;28;19969;-68
2022/04/20 14:09:40;;;;;;;;;;;38.10;48.30;;;;;;5102362;28;19911;-68
2022/04/20 14:12:07;;;;;;;;;;;37.40;47.10;;;;;;5102757;28;19908;-68
2022/04/20 14:14:33;;;;;;;;;;;37.70;19.10;;;;;;5084452;28;19915;-68
2022/04/20 14:16:59;;;;;;;;;;;37.40;19.30;;;;;;5102830;28;19908;-68
2022/04/20 14:19:25;;;;;;;;;;;37.40;19.30;;;;;;5102557;28;19908;-67
2022/04/20 14:21:50;;;;;;;;;;;37.20;19.90;;;;;;5112637;28;19915;-67
2022/04/20 14:24:16;;;;;;;;;;;38.10;19.40;;;;;;5122086;28;19908;-68
2022/04/20 14:32:12;;;;;;;;;;;37.30;40.20;;;;;;5118015;28;19919;-68
2022/04/20 14:34:41;;;;;;;;;;;37.20;19.60;;;;;;5114249;28;19923;-68
2022/04/20 14:37:07;;;;;;;;;;;35.70;20.40;;;;;;5122449;28;20225;-68
2022/04/20 14:39:33;;;;;;;;;;;35.30;20.10;;;;;;5122241;28;20002;-68
2022/04/20 14:41:59;;;;;;;;;;;35.10;20.90;;;;;;5122238;28;19942;-68
2022/04/20 14:44:26;;;;;;;;;;;35.70;20.30;;;;;;5122401;27;19908;-67
2022/04/20 14:46:52;;;;;;;;;;;36.30;20.60;;;;;;5121384;28;19908;-67
2022/04/20 14:49:17;;;;;;;;;;;36.00;20.10;;;;;;5122529;28;19922;-68
2022/04/20 14:51:44;;;;;;;;;;;35.00;20.40;;;;;;5118838;28;19953;-67
2022/04/20 14:54:10;;;;;;;;;;;34.60;20.70;;;;;;5087140;28;19998;-67
2022/04/20 14:56:36;;;;;;;;;;;34.50;20.90;;;;;;5122433;28;20117;-67
2022/04/20 14:59:02;;;;;;;;;;;33.50;20.90;;;;;;5122033;28;19931;-67
2022/04/20 15:01:29;;;;;;;;;;;32.30;21.40;;;;;;5121883;28;19929;-66
2022/04/20 15:03:54;;;;;;;;;;;30.30;23.00;;;;;;5104051;28;19919;-67
2022/04/20 15:06:20;;;;;;;;;;;29.50;22.70;;;;;;5119984;28;19916;-67
2022/04/20 15:08:46;;;;;;;;;;;28.20;23.30;;;;;;5114363;28;20102;-67
2022/04/20 15:11:12;;;;;;;;;;;26.70;24.60;;;;;;5121002;28;19961;-67
2022/04/20 15:13:39;;;;;;;;;;;25.80;24.40;;;;;;5120512;28;19971;-67